createdAt,value
2023-03-11T00:00:24.250Z,1.60
2023-03-11T00:02:53.188Z,1.48
2023-03-11T00:05:25.571Z,1.90
2023-03-11T00:07:52.602Z,2.40
2023-03-11T00:10:25.546Z,2.22
2023-03-11T00:12:52.197Z,1.97
2023-03-11T00:15:18.970Z,3.15
2023-03-11T00:17:47.232Z,3.17
2023-03-11T00:20:20.086Z,1.25
2023-03-11T00:22:47.463Z,1.80
2023-03-11T00:25:14.951Z,1.50
2023-03-11T00:27:41.603Z,2.78
2023-03-11T00:30:09.083Z,1.83
2023-03-11T00:32:35.737Z,2.72
2023-03-11T00:35:02.790Z,3.03
2023-03-11T00:37:29.357Z,1.92
2023-03-11T00:39:56.069Z,2.78
2023-03-11T00:42:22.701Z,2.85
2023-03-11T00:44:49.284Z,2.53
2023-03-11T00:47:15.930Z,2.45
2023-03-11T00:49:43.076Z,2.00
2023-03-11T00:52:09.906Z,4.20
2023-03-11T00:54:36.504Z,2.83
2023-03-11T00:57:03.248Z,3.45
2023-03-11T00:59:29.835Z,2.38
2023-03-11T01:01:56.401Z,3.15
2023-03-11T01:04:23.004Z,2.70
2023-03-11T01:06:49.637Z,2.40
2023-03-11T01:09:16.230Z,2.83
2023-03-11T01:11:42.784Z,2.53
2023-03-11T01:14:09.720Z,4.28
2023-03-11T01:16:36.339Z,2.25
2023-03-11T01:19:03.214Z,2.30
2023-03-11T01:21:29.851Z,4.43
2023-03-11T01:23:56.498Z,1.92
2023-03-11T01:26:23.081Z,2.17
2023-03-11T01:28:49.706Z,3.45
2023-03-11T01:31:16.525Z,2.42
2023-03-11T01:33:43.121Z,2.17
2023-03-11T01:36:09.870Z,3.15
2023-03-11T01:38:36.549Z,2.80
2023-03-11T01:41:03.861Z,2.42
2023-03-11T01:43:45.977Z,2.53
2023-03-11T01:47:08.129Z,3.47
2023-03-11T01:49:34.783Z,2.45
2023-03-11T01:52:07.627Z,2.72
2023-03-11T01:54:38.201Z,1.90
2023-03-11T01:57:12.384Z,2.75
2023-03-11T01:59:44.852Z,2.40
2023-03-11T02:02:32.564Z,3.33
2023-03-11T02:05:01.419Z,3.15
2023-03-11T02:07:28.783Z,2.38
2023-03-11T02:09:55.350Z,3.05
2023-03-11T02:12:22.242Z,2.38
2023-03-11T02:14:51.775Z,2.40
2023-03-11T02:17:18.462Z,4.55
2023-03-11T02:20:06.209Z,1.75
2023-03-11T02:22:33.694Z,2.17
2023-03-11T02:25:07.360Z,1.90
2023-03-11T02:27:38.684Z,2.17
2023-03-11T02:30:06.316Z,2.75
2023-03-11T02:32:33.501Z,3.33
2023-03-11T02:35:00.225Z,1.83
2023-03-11T02:37:26.801Z,2.67
2023-03-11T02:40:22.522Z,2.28
2023-03-11T02:42:51.883Z,1.60
2023-03-11T02:45:21.948Z,2.08
2023-03-11T02:47:49.546Z,3.20
2023-03-11T02:50:18.416Z,1.65
2023-03-11T02:52:45.620Z,2.30
2023-03-11T02:55:12.238Z,2.92
2023-03-11T02:57:39.042Z,2.03
2023-03-11T03:00:15.050Z,1.55
2023-03-11T03:02:43.243Z,1.35
2023-03-11T03:05:11.524Z,1.90
2023-03-11T03:07:38.586Z,2.38
2023-03-11T03:10:06.450Z,2.17
2023-03-11T03:12:32.998Z,2.15
2023-03-11T03:14:59.588Z,2.92
2023-03-11T03:17:26.262Z,2.13
2023-03-11T03:19:53.068Z,1.80
2023-03-11T03:22:19.684Z,1.48
2023-03-11T03:24:46.356Z,2.45
2023-03-11T03:27:12.951Z,1.85
2023-03-11T03:29:39.519Z,2.13
2023-03-11T03:32:06.655Z,1.83
2023-03-11T03:34:33.441Z,1.83
2023-03-11T03:36:59.985Z,2.15
2023-03-11T03:39:30.768Z,2.53
2023-03-11T03:41:57.406Z,3.65
2023-03-11T03:44:24.036Z,1.95
2023-03-11T03:46:50.694Z,1.77
2023-03-11T03:49:17.253Z,1.42
2023-03-11T03:51:43.866Z,2.63
2023-03-11T03:54:10.485Z,1.45
2023-03-11T03:56:37.178Z,1.38
2023-03-11T03:59:03.956Z,1.95
2023-03-11T04:01:30.519Z,0.80
2023-03-11T04:03:57.136Z,2.08
2023-03-11T04:06:25.978Z,1.83
2023-03-11T04:08:53.741Z,2.67
2023-03-11T04:11:21.358Z,1.63
2023-03-11T04:13:48.429Z,2.05
2023-03-11T04:16:18.763Z,1.08
2023-03-11T04:18:45.591Z,1.30
2023-03-11T04:21:12.378Z,2.22
2023-03-11T04:23:38.990Z,1.60
2023-03-11T04:26:06.082Z,1.40
2023-03-11T04:28:32.710Z,1.58
2023-03-11T04:30:59.370Z,1.30
2023-03-11T04:33:26.016Z,1.73
2023-03-11T04:35:52.635Z,1.63
2023-03-11T04:38:19.297Z,2.55
2023-03-11T04:40:45.841Z,2.05
2023-03-11T04:43:12.481Z,2.25
2023-03-11T04:45:40.174Z,1.98
2023-03-11T04:48:07.120Z,2.28
2023-03-11T04:50:34.020Z,1.90
2023-03-11T04:53:00.578Z,1.23
2023-03-11T04:55:27.170Z,1.05
2023-03-11T04:57:53.949Z,3.25
2023-03-11T05:00:24.764Z,2.88
2023-03-11T05:02:51.571Z,2.65
2023-03-11T05:05:21.951Z,1.70
2023-03-11T05:07:50.373Z,1.95
2023-03-11T05:10:22.561Z,3.15
2023-03-11T05:12:50.172Z,3.00
2023-03-11T05:15:17.014Z,2.45
2023-03-11T05:17:43.905Z,2.63
2023-03-11T05:20:11.451Z,1.38
2023-03-11T05:22:38.412Z,1.75
2023-03-11T05:25:05.961Z,2.45
2023-03-11T05:27:32.921Z,2.97
2023-03-11T05:29:59.536Z,2.25
2023-03-11T05:32:26.309Z,1.80
2023-03-11T05:34:52.964Z,3.53
2023-03-11T05:37:20.059Z,2.53
2023-03-11T05:39:46.736Z,0.75
2023-03-11T05:42:13.390Z,1.63
2023-03-11T05:44:41.452Z,1.90
2023-03-11T05:47:08.056Z,2.45
2023-03-11T05:49:34.764Z,2.10
2023-03-11T05:52:01.460Z,1.52
2023-03-11T05:54:27.990Z,2.08
2023-03-11T05:56:55.966Z,1.67
2023-03-11T05:59:23.335Z,2.97
2023-03-11T06:01:49.973Z,1.35
2023-03-11T06:04:16.711Z,2.17
2023-03-11T06:06:43.373Z,2.72
2023-03-11T06:09:14.224Z,1.73
2023-03-11T06:11:41.287Z,2.20
2023-03-11T06:14:10.952Z,1.67
2023-03-11T06:16:37.629Z,2.22
2023-03-11T06:19:04.276Z,2.55
2023-03-11T06:21:31.310Z,1.50
2023-03-11T06:23:57.879Z,1.80
2023-03-11T06:26:24.869Z,2.45
2023-03-11T06:28:52.480Z,3.50
2023-03-11T06:31:27.413Z,0.95
2023-03-11T06:33:56.105Z,2.38
2023-03-11T06:36:23.430Z,3.40
2023-03-11T06:38:52.943Z,2.70
2023-03-11T06:41:19.590Z,4.70
2023-03-11T06:43:46.255Z,2.13
2023-03-11T06:46:21.223Z,3.42
2023-03-11T06:48:48.029Z,2.95
2023-03-11T06:51:14.742Z,1.83
2023-03-11T06:53:41.425Z,2.85
2023-03-11T06:56:13.254Z,1.85
2023-03-11T06:58:42.723Z,3.75
2023-03-11T07:01:15.178Z,3.65
2023-03-11T07:03:42.502Z,1.67
2023-03-11T07:06:19.271Z,3.65
2023-03-11T07:08:50.812Z,2.47
2023-03-11T07:11:19.186Z,3.28
2023-03-11T07:13:46.129Z,2.72
2023-03-11T07:16:15.980Z,3.10
2023-03-11T07:18:43.783Z,2.65
2023-03-11T07:21:14.161Z,2.72
2023-03-11T07:23:41.425Z,3.47
2023-03-11T07:26:15.945Z,4.65
2023-03-11T07:28:42.625Z,4.07
2023-03-11T07:31:10.731Z,1.63
2023-03-11T07:33:38.450Z,2.70
2023-03-11T07:36:07.259Z,2.15
2023-03-11T07:38:33.952Z,3.10
2023-03-11T07:41:00.624Z,2.20
2023-03-11T07:43:27.409Z,2.40
2023-03-11T07:46:04.790Z,2.30
2023-03-11T07:48:31.728Z,3.05
2023-03-11T07:51:06.972Z,4.38
2023-03-11T07:53:34.464Z,2.15
2023-03-11T07:56:01.981Z,1.55
2023-03-11T07:58:28.737Z,1.77
2023-03-11T08:00:56.986Z,3.55
2023-03-11T08:03:25.036Z,1.40
2023-03-11T08:05:52.268Z,2.63
2023-03-11T08:08:19.037Z,3.22
2023-03-11T08:10:45.586Z,4.22
2023-03-11T08:13:12.139Z,2.20
2023-03-11T08:15:38.831Z,1.92
2023-03-11T08:18:05.673Z,2.00
2023-03-11T08:20:32.445Z,1.77
2023-03-11T08:23:00.894Z,2.38
2023-03-11T08:25:27.624Z,4.95
2023-03-11T08:27:54.234Z,1.77
2023-03-11T08:30:21.343Z,1.05
2023-03-11T08:32:49.316Z,1.17
2023-03-11T08:35:16.801Z,1.63
2023-03-11T08:37:43.647Z,4.80
2023-03-11T08:40:11.233Z,2.28
2023-03-11T08:42:37.830Z,2.38
2023-03-11T08:45:04.942Z,2.20
2023-03-11T08:47:35.778Z,1.20
2023-03-11T08:50:04.839Z,2.15
2023-03-11T08:52:31.402Z,2.30
2023-03-11T08:54:57.988Z,1.35
2023-03-11T08:57:24.693Z,4.28
2023-03-11T08:59:51.273Z,0.85
2023-03-11T09:02:17.897Z,2.28
2023-03-11T09:04:47.361Z,3.30
2023-03-11T09:07:14.487Z,1.30
2023-03-11T09:09:41.197Z,2.28
2023-03-11T09:12:08.509Z,0.90
2023-03-11T09:14:35.518Z,1.48
2023-03-11T09:17:02.259Z,1.92
2023-03-11T09:19:29.383Z,1.33
2023-03-11T09:21:55.949Z,1.77
2023-03-11T09:24:22.530Z,4.78
2023-03-11T09:26:49.132Z,1.73
2023-03-11T09:29:15.690Z,2.40
2023-03-11T09:31:42.500Z,3.88
2023-03-11T09:34:11.268Z,2.58
2023-03-11T09:36:40.549Z,1.55
2023-03-11T09:39:07.576Z,3.40
2023-03-11T09:41:58.759Z,2.30
2023-03-11T09:44:44.173Z,2.63
2023-03-11T09:48:09.569Z,2.15
2023-03-11T09:50:53.705Z,4.32
2023-03-11T09:53:35.412Z,4.18
2023-03-11T09:56:07.073Z,2.03
2023-03-11T09:58:40.172Z,4.15
2023-03-11T10:01:28.076Z,3.37
2023-03-11T10:04:05.348Z,1.95
2023-03-11T10:06:32.064Z,1.40
2023-03-11T10:09:08.048Z,1.13
2023-03-11T10:11:47.234Z,2.65
2023-03-11T10:14:35.836Z,1.77
2023-03-11T10:17:40.090Z,2.03
2023-03-11T10:20:22.687Z,1.63
2023-03-11T10:23:07.154Z,1.98
2023-03-11T10:26:08.064Z,1.75
2023-03-11T10:28:46.977Z,2.25
2023-03-11T10:31:25.559Z,1.52
2023-03-11T10:33:52.136Z,1.85
2023-03-11T10:36:26.544Z,1.90
2023-03-11T10:38:55.180Z,4.32
2023-03-11T10:41:47.084Z,1.70
2023-03-11T10:44:18.748Z,1.38
2023-03-11T10:46:45.325Z,1.40
2023-03-11T10:49:15.518Z,3.28
2023-03-11T10:51:45.306Z,2.75
2023-03-11T10:54:25.129Z,1.25
2023-03-11T10:56:56.184Z,1.55
2023-03-11T10:59:54.245Z,1.42
2023-03-11T11:02:29.721Z,1.27
2023-03-11T11:05:27.560Z,1.35
2023-03-11T11:08:15.850Z,4.25
2023-03-11T11:11:00.311Z,1.58
2023-03-11T11:13:31.171Z,2.83
2023-03-11T11:16:03.432Z,2.92
2023-03-11T11:18:42.430Z,1.60
2023-03-11T11:21:14.567Z,1.48
2023-03-11T11:23:48.285Z,2.30
2023-03-11T11:26:22.361Z,5.75
2023-03-11T11:29:14.952Z,1.45
2023-03-11T11:31:44.854Z,1.15
2023-03-11T11:34:34.861Z,3.63
2023-03-11T11:37:04.306Z,1.58
2023-03-11T11:39:44.421Z,1.33
2023-03-11T11:42:13.755Z,4.40
2023-03-11T11:44:43.106Z,1.30
2023-03-11T11:47:34.040Z,1.50
2023-03-11T11:50:05.104Z,2.55
2023-03-11T11:52:36.566Z,1.67
2023-03-11T11:55:11.556Z,3.08
2023-03-11T11:57:38.178Z,3.20
2023-03-11T12:00:21.637Z,2.13
2023-03-11T12:03:23.729Z,2.75
2023-03-11T12:06:03.051Z,2.00
2023-03-11T12:08:42.874Z,2.60
2023-03-11T12:11:17.298Z,2.90
2023-03-11T12:14:33.043Z,6.07
2023-03-11T12:17:04.540Z,3.85
2023-03-11T12:19:31.255Z,4.32
2023-03-11T12:22:03.669Z,2.58
2023-03-11T12:24:33.060Z,2.97
2023-03-11T12:27:04.997Z,3.22
2023-03-11T12:29:34.592Z,2.53
2023-03-11T12:32:02.783Z,2.15
2023-03-11T12:34:31.401Z,2.47
2023-03-11T12:37:03.445Z,2.28
2023-03-11T12:39:34.187Z,2.00
2023-03-11T12:42:25.110Z,2.58
2023-03-11T12:44:51.890Z,2.03
2023-03-11T12:47:24.428Z,3.40
2023-03-11T12:49:57.256Z,3.22
2023-03-11T12:52:29.088Z,2.55
2023-03-11T12:54:58.665Z,2.38
2023-03-11T12:57:34.220Z,2.33
2023-03-11T13:00:12.529Z,2.55
2023-03-11T13:03:00.601Z,3.40
2023-03-11T13:05:29.845Z,3.45
2023-03-11T13:08:13.828Z,2.33
2023-03-11T13:10:42.020Z,1.95
2023-03-11T13:13:32.529Z,2.58
2023-03-11T13:16:19.536Z,1.92
2023-03-11T13:18:47.826Z,2.53
2023-03-11T13:21:32.354Z,4.22
2023-03-11T13:24:27.210Z,1.10
2023-03-11T13:27:00.467Z,2.50
2023-03-11T13:29:42.798Z,2.40
2023-03-11T13:32:47.009Z,2.38
2023-03-11T13:35:28.671Z,3.25
2023-03-11T13:38:32.372Z,2.13
2023-03-11T13:41:02.015Z,2.28
2023-03-11T13:43:29.308Z,2.33
2023-03-11T13:46:07.310Z,3.80
2023-03-11T13:48:40.713Z,2.03
2023-03-11T13:51:13.951Z,1.67
2023-03-11T13:53:45.188Z,1.75
2023-03-11T13:56:23.105Z,4.25
2023-03-11T13:58:49.754Z,2.03
2023-03-11T14:01:18.001Z,2.95
2023-03-11T14:03:46.914Z,2.53
2023-03-11T14:06:19.312Z,3.53
2023-03-11T14:08:57.933Z,4.13
2023-03-11T14:11:29.432Z,3.58
2023-03-11T14:13:56.594Z,2.42
2023-03-11T14:16:34.003Z,2.78
2023-03-11T14:19:15.390Z,2.85
2023-03-11T14:21:43.578Z,3.58
2023-03-11T14:24:17.604Z,1.90
2023-03-11T14:26:45.199Z,1.90
2023-03-11T14:29:16.713Z,1.98
2023-03-11T14:31:45.327Z,1.58
2023-03-11T14:34:14.819Z,3.63
2023-03-11T14:36:48.593Z,3.67
2023-03-11T14:39:25.880Z,1.55
2023-03-11T14:41:58.820Z,3.00
2023-03-11T14:44:27.700Z,2.93
2023-03-11T14:47:03.297Z,4.47
2023-03-11T14:49:30.425Z,3.33
2023-03-11T14:52:03.158Z,1.98
2023-03-11T14:54:33.912Z,2.83
2023-03-11T14:57:18.457Z,3.05
2023-03-11T14:59:50.499Z,2.90
2023-03-11T15:02:30.529Z,2.65
2023-03-11T15:04:59.484Z,3.45
2023-03-11T15:07:27.469Z,5.35
2023-03-11T15:09:54.356Z,2.15
2023-03-11T15:12:35.476Z,2.55
2023-03-11T15:15:02.033Z,2.03
2023-03-11T15:17:42.742Z,2.83
2023-03-11T15:20:24.039Z,2.25
2023-03-11T15:23:00.857Z,3.55
2023-03-11T15:25:34.142Z,1.80
2023-03-11T15:28:26.723Z,3.23
2023-03-11T15:31:25.624Z,2.85
2023-03-11T15:33:52.249Z,2.63
2023-03-11T15:36:33.695Z,2.42
2023-03-11T15:39:32.425Z,3.17
2023-03-11T15:42:06.573Z,2.15
2023-03-11T15:44:52.710Z,2.45
2023-03-11T15:47:23.339Z,3.58
2023-03-11T15:49:50.361Z,3.03
2023-03-11T15:52:19.318Z,2.38
2023-03-11T15:54:55.118Z,2.92
2023-03-11T15:57:28.228Z,7.78
2023-03-11T15:59:57.217Z,7.32
2023-03-11T16:02:28.013Z,3.35
2023-03-11T16:04:56.054Z,3.72
2023-03-11T16:07:38.280Z,2.45
2023-03-11T16:10:06.528Z,4.75
2023-03-11T16:12:33.209Z,4.82
2023-03-11T16:14:59.943Z,4.25
2023-03-11T16:17:28.659Z,4.57
2023-03-11T16:20:00.754Z,4.93
2023-03-11T16:22:35.282Z,4.40
2023-03-11T16:25:03.051Z,6.35
2023-03-11T16:27:30.057Z,4.18
2023-03-11T16:29:56.926Z,4.70
2023-03-11T16:32:23.558Z,3.75
2023-03-11T16:34:50.158Z,3.63
2023-03-11T16:37:20.796Z,3.97
2023-03-11T16:39:48.537Z,4.80
2023-03-11T16:42:23.764Z,3.78
2023-03-11T16:44:50.376Z,4.53
2023-03-11T16:47:17.468Z,7.15
2023-03-11T16:49:44.134Z,3.80
2023-03-11T16:52:10.998Z,2.88
2023-03-11T16:54:37.680Z,4.13
2023-03-11T16:57:04.304Z,5.50
2023-03-11T16:59:31.005Z,5.35
2023-03-11T17:01:57.643Z,5.70
2023-03-11T17:04:24.254Z,5.28
2023-03-11T17:06:50.806Z,4.45
2023-03-11T17:09:17.437Z,5.60
2023-03-11T17:11:44.028Z,6.95
2023-03-11T17:14:16.680Z,7.55
2023-03-11T17:16:45.229Z,5.80
2023-03-11T17:19:11.984Z,5.07
2023-03-11T17:21:38.554Z,10.60
2023-03-11T17:24:05.505Z,4.72
2023-03-11T17:26:32.152Z,5.18
2023-03-11T17:28:59.473Z,4.65
2023-03-11T17:31:26.296Z,4.10
2023-03-11T17:33:53.082Z,5.05
2023-03-11T17:36:20.108Z,4.22
2023-03-11T17:38:47.759Z,4.00
2023-03-11T17:41:16.893Z,3.53
2023-03-11T17:43:44.073Z,3.72
2023-03-11T17:46:16.742Z,5.57
2023-03-11T17:48:45.174Z,4.43
2023-03-11T17:51:14.739Z,4.53
2023-03-11T17:53:45.782Z,4.25
2023-03-11T17:56:14.458Z,5.75
2023-03-11T17:58:41.201Z,6.15
2023-03-11T18:01:14.263Z,4.18
2023-03-11T18:03:41.117Z,4.10
2023-03-11T18:06:10.997Z,6.35
2023-03-11T18:08:37.871Z,2.95
2023-03-11T18:11:24.970Z,3.75
2023-03-11T18:13:52.137Z,5.13
2023-03-11T18:16:24.740Z,6.57
2023-03-11T18:18:52.226Z,5.63
2023-03-11T18:21:21.754Z,5.35
2023-03-11T18:23:48.781Z,9.80
2023-03-11T18:26:18.297Z,7.18
2023-03-11T18:28:45.644Z,5.75
2023-03-11T18:31:20.522Z,5.88
2023-03-11T18:33:50.673Z,5.32
2023-03-11T18:36:22.814Z,4.80
2023-03-11T18:38:50.661Z,6.82
2023-03-11T18:41:17.509Z,6.05
2023-03-11T18:43:44.487Z,6.57
2023-03-11T18:46:16.338Z,6.65
2023-03-11T18:48:43.000Z,6.70
2023-03-11T18:51:09.661Z,6.18
2023-03-11T18:53:36.571Z,6.15
2023-03-11T18:56:08.691Z,6.03
2023-03-11T18:58:35.307Z,7.53
2023-03-11T19:01:10.623Z,5.53
2023-03-11T19:03:38.274Z,4.60
2023-03-11T19:06:05.122Z,5.45
2023-03-11T19:08:31.707Z,5.15
2023-03-11T19:10:58.274Z,6.93
2023-03-11T19:13:29.761Z,5.13
2023-03-11T19:16:04.882Z,5.53
2023-03-11T19:18:31.795Z,6.45
2023-03-11T19:21:00.368Z,5.97
2023-03-11T19:23:27.198Z,8.98
2023-03-11T19:26:03.117Z,6.45
2023-03-11T19:28:30.135Z,4.25
2023-03-11T19:30:58.421Z,5.22
2023-03-11T19:33:25.592Z,5.28
2023-03-11T19:35:57.886Z,5.82
2023-03-11T19:38:25.570Z,5.53
2023-03-11T19:41:14.449Z,4.75
2023-03-11T19:43:41.846Z,6.75
2023-03-11T19:46:10.820Z,4.78
2023-03-11T19:48:37.477Z,7.45
2023-03-11T19:51:05.944Z,5.95
2023-03-11T19:53:33.781Z,5.15
2023-03-11T19:56:01.577Z,5.22
2023-03-11T19:58:30.457Z,6.35
2023-03-11T20:00:58.569Z,5.75
2023-03-11T20:03:25.564Z,8.25
2023-03-11T20:05:54.629Z,7.68
2023-03-11T20:08:21.974Z,6.20
2023-03-11T20:10:51.025Z,5.88
2023-03-11T20:13:20.334Z,4.95
2023-03-11T20:15:47.308Z,5.20
2023-03-11T20:18:15.601Z,5.57
2023-03-11T20:20:43.396Z,4.75
2023-03-11T20:23:11.063Z,5.00
2023-03-11T20:25:41.324Z,7.25
2023-03-11T20:28:09.061Z,5.68
2023-03-11T20:30:37.682Z,3.97
2023-03-11T20:33:04.715Z,7.70
2023-03-11T20:35:31.429Z,5.85
2023-03-11T20:37:59.313Z,4.65
2023-03-11T20:40:26.131Z,5.53
2023-03-11T20:42:52.747Z,8.00
2023-03-11T20:45:22.373Z,11.60
2023-03-11T20:47:53.729Z,10.88
2023-03-11T20:50:21.832Z,9.18
2023-03-11T20:52:48.640Z,7.57
2023-03-11T20:55:15.310Z,5.93
2023-03-11T20:57:42.207Z,8.27
2023-03-11T21:00:12.102Z,10.65
2023-03-11T21:02:40.591Z,7.85
2023-03-11T21:05:09.655Z,5.15
2023-03-11T21:07:36.453Z,4.70
2023-03-11T21:10:06.899Z,6.65
2023-03-11T21:12:33.830Z,7.03
2023-03-11T21:15:00.626Z,4.95
2023-03-11T21:17:27.429Z,5.00
2023-03-11T21:19:54.269Z,5.38
2023-03-11T21:22:21.058Z,4.53
2023-03-11T21:24:52.678Z,7.93
2023-03-11T21:27:25.838Z,4.30
2023-03-11T21:29:56.549Z,4.28
2023-03-11T21:32:24.446Z,5.82
2023-03-11T21:34:51.328Z,5.20
2023-03-11T21:37:18.046Z,5.18
2023-03-11T21:39:44.858Z,6.68
2023-03-11T21:42:11.606Z,6.57
2023-03-11T21:44:38.384Z,6.90
2023-03-11T21:47:05.327Z,6.13
2023-03-11T21:49:32.048Z,5.57
2023-03-11T21:52:01.011Z,6.05
2023-03-11T21:54:29.095Z,6.60
2023-03-11T21:56:55.916Z,5.80
2023-03-11T21:59:25.142Z,5.45
2023-03-11T22:01:53.078Z,6.60
2023-03-11T22:04:19.964Z,5.50
2023-03-11T22:06:46.663Z,5.60
2023-03-11T22:09:13.418Z,9.43
2023-03-11T22:11:40.227Z,6.15
2023-03-11T22:14:06.854Z,8.90
2023-03-11T22:16:33.513Z,7.32
2023-03-11T22:19:00.240Z,6.72
2023-03-11T22:21:26.861Z,5.13
2023-03-11T22:23:53.376Z,7.35
2023-03-11T22:26:20.002Z,7.32
2023-03-11T22:28:46.594Z,5.35
2023-03-11T22:31:15.240Z,8.65
2023-03-11T22:33:41.899Z,6.30
2023-03-11T22:36:09.622Z,6.13
2023-03-11T22:38:37.091Z,6.57
2023-03-11T22:41:07.725Z,6.22
2023-03-11T22:43:35.542Z,5.70
2023-03-11T22:46:03.121Z,6.93
2023-03-11T22:48:29.921Z,5.97
2023-03-11T22:50:57.276Z,6.05
2023-03-11T22:53:25.026Z,7.75
2023-03-11T22:55:52.445Z,9.15
2023-03-11T22:58:19.595Z,7.65
2023-03-11T23:00:46.622Z,6.50
2023-03-11T23:03:13.694Z,6.03
2023-03-11T23:05:43.335Z,7.95
2023-03-11T23:08:12.082Z,7.90
2023-03-11T23:10:46.021Z,5.47
2023-03-11T23:15:44.290Z,6.30
2023-03-11T23:18:12.000Z,5.00
2023-03-11T23:20:40.885Z,7.45
2023-03-11T23:23:08.683Z,5.15
2023-03-11T23:25:35.868Z,7.80
2023-03-11T23:28:04.342Z,8.20
2023-03-11T23:30:31.020Z,7.57
2023-03-11T23:32:58.182Z,5.00
2023-03-11T23:35:24.912Z,7.07
2023-03-11T23:37:51.736Z,7.57
2023-03-11T23:40:18.586Z,5.32
2023-03-11T23:42:45.303Z,7.70
2023-03-11T23:45:11.893Z,4.88
2023-03-11T23:47:38.473Z,7.88
2023-03-11T23:50:05.508Z,7.68
2023-03-11T23:52:32.637Z,5.55
2023-03-11T23:54:59.226Z,6.88
2023-03-11T23:57:25.855Z,5.90
2023-03-11T23:59:52.450Z,6.22
